sensor_id;sensor_type;location;lat;lon;timestamp;pressure;altitude;pressure_sealevel;temperature;humidity
22580;BME280;11456;47.030;15.396;2023-01-08T00:00:02;97457.31;;;0.69;98.37
22580;BME280;11456;47.030;15.396;2023-01-08T00:02:37;97456.53;;;0.39;97.97
22580;BME280;11456;47.030;15.396;2023-01-08T00:05:04;97450.13;;;0.57;98.62
22580;BME280;11456;47.030;15.396;2023-01-08T00:07:30;97448.41;;;0.70;98.76
22580;BME280;11456;47.030;15.396;2023-01-08T00:09:57;97451.16;;;0.69;98.66
22580;BME280;11456;47.030;15.396;2023-01-08T00:12:23;97452.66;;;0.59;98.10
22580;BME280;11456;47.030;15.396;2023-01-08T00:14:50;97452.78;;;0.57;98.07
22580;BME280;11456;47.030;15.396;2023-01-08T00:17:16;97448.41;;;0.28;97.61
22580;BME280;11456;47.030;15.396;2023-01-08T00:19:43;97444.91;;;0.27;98.31
22580;BME280;11456;47.030;15.396;2023-01-08T00:22:09;97441.78;;;0.21;98.05
22580;BME280;11456;47.030;15.396;2023-01-08T00:24:36;97437.56;;;0.18;98.17
22580;BME280;11456;47.030;15.396;2023-01-08T00:27:02;97439.31;;;0.04;98.24
22580;BME280;11456;47.030;15.396;2023-01-08T00:29:29;97440.66;;;0.11;98.18
22580;BME280;11456;47.030;15.396;2023-01-08T00:31:55;97444.63;;;0.04;98.50
22580;BME280;11456;47.030;15.396;2023-01-08T00:34:22;97446.97;;;0.08;98.49
22580;BME280;11456;47.030;15.396;2023-01-08T00:36:49;97448.22;;;0.03;98.37
22580;BME280;11456;47.030;15.396;2023-01-08T00:39:15;97451.53;;;0.06;98.13
22580;BME280;11456;47.030;15.396;2023-01-08T00:41:41;97455.28;;;-0.12;98.36
22580;BME280;11456;47.030;15.396;2023-01-08T00:44:10;97450.47;;;-0.06;98.57
22580;BME280;11456;47.030;15.396;2023-01-08T00:46:36;97440.97;;;-0.24;98.83
22580;BME280;11456;47.030;15.396;2023-01-08T00:49:03;97445.91;;;-0.18;99.12
22580;BME280;11456;47.030;15.396;2023-01-08T00:51:29;97446.72;;;-0.02;98.96
22580;BME280;11456;47.030;15.396;2023-01-08T00:53:56;97439.88;;;-0.06;99.22
22580;BME280;11456;47.030;15.396;2023-01-08T00:56:22;97437.22;;;-0.06;98.82
22580;BME280;11456;47.030;15.396;2023-01-08T00:58:49;97438.91;;;-0.19;98.40
22580;BME280;11456;47.030;15.396;2023-01-08T01:01:15;97433.63;;;-0.19;98.94
22580;BME280;11456;47.030;15.396;2023-01-08T01:03:42;97432.09;;;-0.23;98.46
22580;BME280;11456;47.030;15.396;2023-01-08T01:06:09;97437.13;;;-0.04;98.90
22580;BME280;11456;47.030;15.396;2023-01-08T01:08:36;97428.81;;;-0.12;98.59
22580;BME280;11456;47.030;15.396;2023-01-08T01:11:07;97434.22;;;-0.14;98.65
22580;BME280;11456;47.030;15.396;2023-01-08T01:13:34;97434.94;;;-0.12;98.15
22580;BME280;11456;47.030;15.396;2023-01-08T01:16:00;97441.59;;;0.10;97.60
22580;BME280;11456;47.030;15.396;2023-01-08T01:18:27;97439.88;;;-0.06;98.21
22580;BME280;11456;47.030;15.396;2023-01-08T01:20:54;97441.09;;;-0.11;99.36
22580;BME280;11456;47.030;15.396;2023-01-08T01:23:21;97431.44;;;-0.12;99.12
22580;BME280;11456;47.030;15.396;2023-01-08T01:25:47;97433.13;;;-0.25;98.50
22580;BME280;11456;47.030;15.396;2023-01-08T01:28:14;97432.84;;;-0.35;98.50
22580;BME280;11456;47.030;15.396;2023-01-08T01:30:41;97430.84;;;-0.46;98.64
22580;BME280;11456;47.030;15.396;2023-01-08T01:33:08;97434.22;;;-0.44;98.84
22580;BME280;11456;47.030;15.396;2023-01-08T01:35:34;97438.50;;;-0.41;99.62
22580;BME280;11456;47.030;15.396;2023-01-08T01:38:00;97425.59;;;-0.17;99.30
22580;BME280;11456;47.030;15.396;2023-01-08T01:40:27;97420.78;;;-0.11;98.47
22580;BME280;11456;47.030;15.396;2023-01-08T01:42:53;97413.88;;;-0.27;98.24
22580;BME280;11456;47.030;15.396;2023-01-08T01:45:24;97415.47;;;-0.39;97.65
22580;BME280;11456;47.030;15.396;2023-01-08T01:47:54;97418.19;;;-0.41;97.52
22580;BME280;11456;47.030;15.396;2023-01-08T01:53:00;97410.06;;;-0.67;98.18
22580;BME280;11456;47.030;15.396;2023-01-08T01:55:28;97411.22;;;-0.57;98.26
22580;BME280;11456;47.030;15.396;2023-01-08T01:58:06;97417.47;;;-0.58;98.10
22580;BME280;11456;47.030;15.396;2023-01-08T02:00:34;97404.22;;;-0.72;98.22
22580;BME280;11456;47.030;15.396;2023-01-08T02:03:00;97405.28;;;-0.61;98.48
22580;BME280;11456;47.030;15.396;2023-01-08T02:05:42;97411.72;;;-0.51;99.79
22580;BME280;11456;47.030;15.396;2023-01-08T02:08:12;97402.19;;;-0.53;99.38
22580;BME280;11456;47.030;15.396;2023-01-08T02:10:50;97403.00;;;-0.67;100.00
22580;BME280;11456;47.030;15.396;2023-01-08T02:13:22;97400.84;;;-0.60;99.96
22580;BME280;11456;47.030;15.396;2023-01-08T02:18:19;97393.19;;;-0.65;100.00
22580;BME280;11456;47.030;15.396;2023-01-08T02:20:54;97386.28;;;-0.67;100.00
22580;BME280;11456;47.030;15.396;2023-01-08T02:24:06;97383.22;;;-0.75;99.72
22580;BME280;11456;47.030;15.396;2023-01-08T02:26:12;97389.63;;;-0.79;99.85
22580;BME280;11456;47.030;15.396;2023-01-08T02:28:46;97390.56;;;-0.81;100.00
22580;BME280;11456;47.030;15.396;2023-01-08T02:31:14;97383.19;;;-0.90;100.00
22580;BME280;11456;47.030;15.396;2023-01-08T02:33:41;97391.06;;;-1.04;99.92
22580;BME280;11456;47.030;15.396;2023-01-08T02:38:38;97388.22;;;-1.01;99.33
22580;BME280;11456;47.030;15.396;2023-01-08T02:41:08;97384.13;;;-0.91;99.57
22580;BME280;11456;47.030;15.396;2023-01-08T02:43:47;97386.31;;;-0.83;99.04
22580;BME280;11456;47.030;15.396;2023-01-08T02:46:21;97379.94;;;-0.95;99.34
22580;BME280;11456;47.030;15.396;2023-01-08T02:49:00;97376.78;;;-0.86;98.58
22580;BME280;11456;47.030;15.396;2023-01-08T02:51:36;97381.13;;;-0.85;98.58
22580;BME280;11456;47.030;15.396;2023-01-08T02:54:07;97383.88;;;-1.02;98.68
22580;BME280;11456;47.030;15.396;2023-01-08T02:56:36;97387.66;;;-0.76;99.53
22580;BME280;11456;47.030;15.396;2023-01-08T02:59:04;97380.84;;;-0.36;96.21
22580;BME280;11456;47.030;15.396;2023-01-08T03:01:32;97378.88;;;-0.76;96.13
22580;BME280;11456;47.030;15.396;2023-01-08T03:04:13;97370.13;;;-0.93;97.37
22580;BME280;11456;47.030;15.396;2023-01-08T03:06:41;97364.41;;;-0.85;97.64
22580;BME280;11456;47.030;15.396;2023-01-08T03:09:09;97362.94;;;-1.05;97.64
22580;BME280;11456;47.030;15.396;2023-01-08T03:11:58;97363.44;;;-1.14;97.73
22580;BME280;11456;47.030;15.396;2023-01-08T03:14:27;97363.28;;;-1.27;98.71
22580;BME280;11456;47.030;15.396;2023-01-08T03:17:00;97354.22;;;-1.07;98.38
22580;BME280;11456;47.030;15.396;2023-01-08T03:19:29;97359.16;;;-1.01;98.17
22580;BME280;11456;47.030;15.396;2023-01-08T03:21:58;97351.81;;;-0.96;98.68
22580;BME280;11456;47.030;15.396;2023-01-08T03:24:27;97351.47;;;-0.90;98.13
22580;BME280;11456;47.030;15.396;2023-01-08T03:26:56;97350.06;;;-0.37;97.16
22580;BME280;11456;47.030;15.396;2023-01-08T03:29:23;97339.25;;;-0.62;96.82
22580;BME280;11456;47.030;15.396;2023-01-08T03:31:52;97332.38;;;-0.95;97.04
22580;BME280;11456;47.030;15.396;2023-01-08T03:34:21;97332.72;;;-1.01;97.70
22580;BME280;11456;47.030;15.396;2023-01-08T03:36:50;97331.34;;;-0.92;97.72
22580;BME280;11456;47.030;15.396;2023-01-08T03:39:18;97330.31;;;-0.90;97.42
22580;BME280;11456;47.030;15.396;2023-01-08T03:41:46;97319.00;;;-0.92;97.54
22580;BME280;11456;47.030;15.396;2023-01-08T03:44:13;97314.19;;;-1.15;97.64
22580;BME280;11456;47.030;15.396;2023-01-08T03:46:41;97314.88;;;-1.27;97.64
22580;BME280;11456;47.030;15.396;2023-01-08T03:49:09;97318.44;;;-1.12;98.89
22580;BME280;11456;47.030;15.396;2023-01-08T03:51:44;97315.16;;;-1.02;98.17
22580;BME280;11456;47.030;15.396;2023-01-08T03:54:15;97314.63;;;-0.93;97.84
22580;BME280;11456;47.030;15.396;2023-01-08T03:56:42;97313.28;;;-1.00;98.00
22580;BME280;11456;47.030;15.396;2023-01-08T03:59:10;97305.72;;;-1.06;97.50
22580;BME280;11456;47.030;15.396;2023-01-08T04:01:37;97307.34;;;-1.03;97.73
22580;BME280;11456;47.030;15.396;2023-01-08T04:04:04;97301.22;;;-1.04;97.34
22580;BME280;11456;47.030;15.396;2023-01-08T04:06:30;97298.72;;;-1.07;97.35
22580;BME280;11456;47.030;15.396;2023-01-08T04:08:57;97302.66;;;-1.28;97.79
22580;BME280;11456;47.030;15.396;2023-01-08T04:11:23;97294.59;;;-1.11;97.66
22580;BME280;11456;47.030;15.396;2023-01-08T04:13:50;97299.13;;;-0.99;97.10
22580;BME280;11456;47.030;15.396;2023-01-08T04:16:20;97283.28;;;-0.99;97.42
22580;BME280;11456;47.030;15.396;2023-01-08T04:18:47;97281.78;;;-1.03;97.62
22580;BME280;11456;47.030;15.396;2023-01-08T04:21:13;97278.16;;;-1.02;97.88
22580;BME280;11456;47.030;15.396;2023-01-08T04:23:40;97288.53;;;-1.13;98.57
22580;BME280;11456;47.030;15.396;2023-01-08T04:26:07;97281.81;;;-1.18;99.85
22580;BME280;11456;47.030;15.396;2023-01-08T04:28:33;97275.31;;;-1.13;99.83
22580;BME280;11456;47.030;15.396;2023-01-08T04:31:04;97272.72;;;-0.99;99.75
22580;BME280;11456;47.030;15.396;2023-01-08T04:33:31;97273.25;;;-1.08;99.92
22580;BME280;11456;47.030;15.396;2023-01-08T04:35:57;97273.06;;;-1.05;100.00
22580;BME280;11456;47.030;15.396;2023-01-08T04:38:24;97273.22;;;-1.22;100.00
22580;BME280;11456;47.030;15.396;2023-01-08T04:40:55;97274.59;;;-1.01;100.00
22580;BME280;11456;47.030;15.396;2023-01-08T04:43:21;97276.56;;;-1.04;100.00
22580;BME280;11456;47.030;15.396;2023-01-08T04:45:48;97271.75;;;-1.28;100.00
22580;BME280;11456;47.030;15.396;2023-01-08T04:48:14;97272.34;;;-1.52;99.93
22580;BME280;11456;47.030;15.396;2023-01-08T04:50:41;97271.09;;;-1.31;100.00
22580;BME280;11456;47.030;15.396;2023-01-08T04:53:07;97268.25;;;-1.42;99.75
22580;BME280;11456;47.030;15.396;2023-01-08T04:55:33;97255.78;;;-1.40;99.37
22580;BME280;11456;47.030;15.396;2023-01-08T04:58:00;97254.75;;;-1.68;98.86
22580;BME280;11456;47.030;15.396;2023-01-08T05:00:26;97265.38;;;-1.69;99.72
22580;BME280;11456;47.030;15.396;2023-01-08T05:02:53;97268.31;;;-1.74;99.84
22580;BME280;11456;47.030;15.396;2023-01-08T05:05:20;97259.09;;;-1.67;100.00
22580;BME280;11456;47.030;15.396;2023-01-08T05:07:46;97264.19;;;-1.64;99.83
22580;BME280;11456;47.030;15.396;2023-01-08T05:10:13;97261.25;;;-1.43;100.00
22580;BME280;11456;47.030;15.396;2023-01-08T05:12:39;97253.28;;;-1.57;99.68
22580;BME280;11456;47.030;15.396;2023-01-08T05:15:06;97260.69;;;-1.48;99.98
22580;BME280;11456;47.030;15.396;2023-01-08T05:17:33;97251.81;;;-1.47;99.03
22580;BME280;11456;47.030;15.396;2023-01-08T05:19:59;97252.63;;;-1.31;98.53
22580;BME280;11456;47.030;15.396;2023-01-08T05:22:26;97258.25;;;-1.37;99.38
22580;BME280;11456;47.030;15.396;2023-01-08T05:24:52;97261.72;;;-1.67;98.91
22580;BME280;11456;47.030;15.396;2023-01-08T05:27:19;97265.97;;;-1.48;98.88
22580;BME280;11456;47.030;15.396;2023-01-08T05:29:45;97256.81;;;-1.43;98.35
22580;BME280;11456;47.030;15.396;2023-01-08T05:32:13;97258.03;;;-1.48;98.03
22580;BME280;11456;47.030;15.396;2023-01-08T05:34:40;97250.50;;;-1.40;98.45
22580;BME280;11456;47.030;15.396;2023-01-08T05:37:07;97247.41;;;-1.33;98.17
22580;BME280;11456;47.030;15.396;2023-01-08T05:39:33;97242.84;;;-1.45;98.38
22580;BME280;11456;47.030;15.396;2023-01-08T05:42:00;97241.19;;;-1.62;97.98
22580;BME280;11456;47.030;15.396;2023-01-08T05:44:26;97242.41;;;-1.83;97.87
22580;BME280;11456;47.030;15.396;2023-01-08T05:46:53;97246.16;;;-1.87;98.16
22580;BME280;11456;47.030;15.396;2023-01-08T05:49:19;97239.50;;;-1.78;97.86
22580;BME280;11456;47.030;15.396;2023-01-08T05:51:49;97240.00;;;-1.72;98.20
22580;BME280;11456;47.030;15.396;2023-01-08T05:54:16;97236.97;;;-1.80;98.05
22580;BME280;11456;47.030;15.396;2023-01-08T05:56:42;97227.75;;;-1.73;97.91
22580;BME280;11456;47.030;15.396;2023-01-08T05:59:10;97234.22;;;-1.63;98.01
22580;BME280;11456;47.030;15.396;2023-01-08T06:01:36;97233.56;;;-1.82;98.69
22580;BME280;11456;47.030;15.396;2023-01-08T06:04:03;97222.50;;;-1.88;99.92
22580;BME280;11456;47.030;15.396;2023-01-08T06:06:31;97223.50;;;-1.75;100.00
22580;BME280;11456;47.030;15.396;2023-01-08T06:08:58;97231.84;;;-1.83;100.00
22580;BME280;11456;47.030;15.396;2023-01-08T06:11:24;97231.50;;;-1.77;100.00
22580;BME280;11456;47.030;15.396;2023-01-08T06:13:50;97228.06;;;-1.63;100.00
22580;BME280;11456;47.030;15.396;2023-01-08T06:16:17;97213.72;;;-1.89;100.00
22580;BME280;11456;47.030;15.396;2023-01-08T06:18:46;97211.75;;;-1.85;100.00
22580;BME280;11456;47.030;15.396;2023-01-08T06:21:12;97218.16;;;-2.36;100.00
22580;BME280;11456;47.030;15.396;2023-01-08T06:23:39;97213.22;;;-2.43;100.00
22580;BME280;11456;47.030;15.396;2023-01-08T06:26:06;97206.69;;;-2.20;100.00
22580;BME280;11456;47.030;15.396;2023-01-08T06:28:32;97213.00;;;-2.07;100.00
22580;BME280;11456;47.030;15.396;2023-01-08T06:30:59;97202.75;;;-1.97;100.00
22580;BME280;11456;47.030;15.396;2023-01-08T06:33:26;97206.31;;;-1.98;100.00
22580;BME280;11456;47.030;15.396;2023-01-08T06:35:53;97207.59;;;-1.89;100.00
22580;BME280;11456;47.030;15.396;2023-01-08T06:38:19;97204.72;;;-2.00;100.00
22580;BME280;11456;47.030;15.396;2023-01-08T06:40:46;97209.03;;;-1.84;100.00
22580;BME280;11456;47.030;15.396;2023-01-08T06:43:13;97209.53;;;-1.77;100.00
22580;BME280;11456;47.030;15.396;2023-01-08T06:45:39;97206.97;;;-1.63;100.00
22580;BME280;11456;47.030;15.396;2023-01-08T06:48:06;97204.59;;;-1.68;100.00
22580;BME280;11456;47.030;15.396;2023-01-08T06:50:33;97213.94;;;-1.62;100.00
22580;BME280;11456;47.030;15.396;2023-01-08T06:52:59;97207.75;;;-1.47;100.00
22580;BME280;11456;47.030;15.396;2023-01-08T06:55:26;97204.00;;;-1.43;100.00
22580;BME280;11456;47.030;15.396;2023-01-08T06:57:56;97212.47;;;-1.52;100.00
22580;BME280;11456;47.030;15.396;2023-01-08T07:00:23;97216.50;;;-1.60;100.00
22580;BME280;11456;47.030;15.396;2023-01-08T07:02:54;97213.09;;;-1.63;100.00
22580;BME280;11456;47.030;15.396;2023-01-08T07:05:21;97215.81;;;-1.64;100.00
22580;BME280;11456;47.030;15.396;2023-01-08T07:07:48;97224.00;;;-1.69;100.00
22580;BME280;11456;47.030;15.396;2023-01-08T07:10:14;97223.44;;;-1.44;100.00
22580;BME280;11456;47.030;15.396;2023-01-08T07:12:43;97223.41;;;-1.28;100.00
22580;BME280;11456;47.030;15.396;2023-01-08T07:15:09;97220.59;;;-1.11;100.00
22580;BME280;11456;47.030;15.396;2023-01-08T07:17:36;97221.69;;;-1.29;100.00
22580;BME280;11456;47.030;15.396;2023-01-08T07:20:02;97228.59;;;-1.12;100.00
22580;BME280;11456;47.030;15.396;2023-01-08T07:22:29;97222.13;;;-0.50;100.00
22580;BME280;11456;47.030;15.396;2023-01-08T07:24:56;97219.09;;;-0.30;98.52
22580;BME280;11456;47.030;15.396;2023-01-08T07:27:22;97212.31;;;0.07;97.83
22580;BME280;11456;47.030;15.396;2023-01-08T07:29:49;97207.28;;;0.96;96.45
22580;BME280;11456;47.030;15.396;2023-01-08T07:32:15;97202.41;;;1.53;94.46
22580;BME280;11456;47.030;15.396;2023-01-08T07:34:41;97209.59;;;1.76;94.90
22580;BME280;11456;47.030;15.396;2023-01-08T07:37:08;97200.72;;;2.25;93.27
22580;BME280;11456;47.030;15.396;2023-01-08T07:39:34;97201.13;;;2.31;91.49
22580;BME280;11456;47.030;15.396;2023-01-08T07:42:01;97213.72;;;2.17;89.28
22580;BME280;11456;47.030;15.396;2023-01-08T07:44:27;97202.06;;;2.07;93.30
22580;BME280;11456;47.030;15.396;2023-01-08T07:46:54;97194.88;;;1.96;89.88
22580;BME280;11456;47.030;15.396;2023-01-08T07:49:21;97197.59;;;2.07;90.31
22580;BME280;11456;47.030;15.396;2023-01-08T07:51:50;97187.34;;;1.53;90.78
22580;BME280;11456;47.030;15.396;2023-01-08T07:54:17;97194.97;;;1.58;91.45
22580;BME280;11456;47.030;15.396;2023-01-08T07:56:43;97192.66;;;1.90;90.46
22580;BME280;11456;47.030;15.396;2023-01-08T07:59:10;97186.16;;;1.94;92.17
22580;BME280;11456;47.030;15.396;2023-01-08T08:01:36;97183.47;;;1.70;92.59
22580;BME280;11456;47.030;15.396;2023-01-08T08:04:03;97177.91;;;2.22;91.80
22580;BME280;11456;47.030;15.396;2023-01-08T08:06:29;97172.53;;;2.35;90.04
22580;BME280;11456;47.030;15.396;2023-01-08T08:08:56;97169.66;;;2.73;90.08
22580;BME280;11456;47.030;15.396;2023-01-08T08:11:23;97164.00;;;2.89;89.80
22580;BME280;11456;47.030;15.396;2023-01-08T08:13:49;97163.88;;;2.79;89.76
22580;BME280;11456;47.030;15.396;2023-01-08T08:16:19;97160.28;;;2.91;89.56
22580;BME280;11456;47.030;15.396;2023-01-08T08:18:45;97163.31;;;2.63;90.30
22580;BME280;11456;47.030;15.396;2023-01-08T08:21:12;97160.91;;;1.88;93.21
22580;BME280;11456;47.030;15.396;2023-01-08T08:23:38;97156.75;;;1.97;94.21
22580;BME280;11456;47.030;15.396;2023-01-08T08:26:04;97151.69;;;2.53;92.92
22580;BME280;11456;47.030;15.396;2023-01-08T08:28:32;97139.97;;;2.20;93.37
22580;BME280;11456;47.030;15.396;2023-01-08T08:30:59;97145.63;;;1.92;94.60
22580;BME280;11456;47.030;15.396;2023-01-08T08:33:25;97137.44;;;2.54;94.36
22580;BME280;11456;47.030;15.396;2023-01-08T08:35:52;97130.53;;;2.86;92.00
22580;BME280;11456;47.030;15.396;2023-01-08T08:38:18;97124.66;;;3.38;89.73
22580;BME280;11456;47.030;15.396;2023-01-08T08:40:49;97123.72;;;2.71;92.04
22580;BME280;11456;47.030;15.396;2023-01-08T08:43:15;97111.81;;;3.21;91.74
22580;BME280;11456;47.030;15.396;2023-01-08T08:45:42;97107.97;;;3.25;89.56
22580;BME280;11456;47.030;15.396;2023-01-08T08:48:08;97100.59;;;3.29;88.62
22580;BME280;11456;47.030;15.396;2023-01-08T08:50:36;97100.44;;;3.08;90.50
22580;BME280;11456;47.030;15.396;2023-01-08T08:53:04;97099.84;;;3.27;90.26
22580;BME280;11456;47.030;15.396;2023-01-08T08:55:31;97083.66;;;3.52;87.38
22580;BME280;11456;47.030;15.396;2023-01-08T08:58:05;97087.13;;;3.63;85.97
22580;BME280;11456;47.030;15.396;2023-01-08T09:00:32;97078.00;;;3.88;85.17
22580;BME280;11456;47.030;15.396;2023-01-08T09:02:58;97079.91;;;3.97;84.58
22580;BME280;11456;47.030;15.396;2023-01-08T09:05:25;97078.31;;;3.41;84.76
22580;BME280;11456;47.030;15.396;2023-01-08T09:07:52;97079.66;;;4.00;85.04
22580;BME280;11456;47.030;15.396;2023-01-08T09:10:20;97081.59;;;4.30;84.42
22580;BME280;11456;47.030;15.396;2023-01-08T09:12:46;97077.53;;;4.47;85.30
22580;BME280;11456;47.030;15.396;2023-01-08T09:15:13;97073.19;;;4.67;84.29
22580;BME280;11456;47.030;15.396;2023-01-08T09:17:39;97076.41;;;5.52;79.77
22580;BME280;11456;47.030;15.396;2023-01-08T09:20:06;97058.84;;;4.89;84.07
22580;BME280;11456;47.030;15.396;2023-01-08T09:22:32;97061.09;;;5.14;82.10
22580;BME280;11456;47.030;15.396;2023-01-08T09:24:59;97055.50;;;6.16;81.36
22580;BME280;11456;47.030;15.396;2023-01-08T09:27:25;97063.69;;;6.43;77.63
22580;BME280;11456;47.030;15.396;2023-01-08T09:29:52;97057.66;;;6.98;74.85
22580;BME280;11456;47.030;15.396;2023-01-08T09:32:18;97059.94;;;7.02;72.51
22580;BME280;11456;47.030;15.396;2023-01-08T09:34:45;97072.75;;;7.45;70.26
22580;BME280;11456;47.030;15.396;2023-01-08T09:37:11;97068.59;;;7.23;70.83
22580;BME280;11456;47.030;15.396;2023-01-08T09:39:38;97072.53;;;7.29;73.50
22580;BME280;11456;47.030;15.396;2023-01-08T09:42:09;97073.59;;;7.46;71.92
22580;BME280;11456;47.030;15.396;2023-01-08T09:44:37;97068.22;;;8.00;70.33
22580;BME280;11456;47.030;15.396;2023-01-08T09:47:05;97065.50;;;8.10;68.16
22580;BME280;11456;47.030;15.396;2023-01-08T09:49:35;97055.72;;;7.74;71.59
22580;BME280;11456;47.030;15.396;2023-01-08T09:52:04;97055.88;;;9.48;64.11
22580;BME280;11456;47.030;15.396;2023-01-08T09:54:31;97051.38;;;8.97;65.79
22580;BME280;11456;47.030;15.396;2023-01-08T09:56:58;97054.16;;;9.73;64.14
22580;BME280;11456;47.030;15.396;2023-01-08T09:59:25;97039.91;;;10.22;62.45
22580;BME280;11456;47.030;15.396;2023-01-08T10:01:51;97041.84;;;10.04;62.97
22580;BME280;11456;47.030;15.396;2023-01-08T10:06:53;97031.56;;;9.57;62.76
22580;BME280;11456;47.030;15.396;2023-01-08T10:09:27;97031.22;;;9.52;63.45
22580;BME280;11456;47.030;15.396;2023-01-08T10:11:57;97017.88;;;9.77;63.03
22580;BME280;11456;47.030;15.396;2023-01-08T10:14:26;97020.03;;;10.31;59.35
22580;BME280;11456;47.030;15.396;2023-01-08T10:16:55;97003.25;;;10.62;60.49
22580;BME280;11456;47.030;15.396;2023-01-08T10:19:23;97004.19;;;10.04;60.35
22580;BME280;11456;47.030;15.396;2023-01-08T10:21:49;96997.19;;;10.52;57.96
22580;BME280;11456;47.030;15.396;2023-01-08T10:24:16;97000.94;;;9.42;61.29
22580;BME280;11456;47.030;15.396;2023-01-08T10:26:44;96998.81;;;9.62;61.63
22580;BME280;11456;47.030;15.396;2023-01-08T10:29:17;96989.41;;;9.24;63.70
22580;BME280;11456;47.030;15.396;2023-01-08T10:31:51;96992.69;;;9.86;63.73
22580;BME280;11456;47.030;15.396;2023-01-08T10:34:40;97001.31;;;9.47;62.06
22580;BME280;11456;47.030;15.396;2023-01-08T10:40:02;96990.00;;;9.02;65.30
22580;BME280;11456;47.030;15.396;2023-01-08T10:42:32;96988.31;;;9.93;62.06
22580;BME280;11456;47.030;15.396;2023-01-08T10:45:01;96978.06;;;8.78;64.26
22580;BME280;11456;47.030;15.396;2023-01-08T10:47:32;96980.63;;;10.06;63.37
22580;BME280;11456;47.030;15.396;2023-01-08T10:49:59;96982.50;;;9.55;62.69
22580;BME280;11456;47.030;15.396;2023-01-08T10:52:32;96983.38;;;10.38;60.55
22580;BME280;11456;47.030;15.396;2023-01-08T10:57:51;96977.06;;;9.05;63.65
22580;BME280;11456;47.030;15.396;2023-01-08T11:00:22;96983.13;;;8.81;65.29
22580;BME280;11456;47.030;15.396;2023-01-08T11:02:49;96970.91;;;9.55;64.81
22580;BME280;11456;47.030;15.396;2023-01-08T11:05:15;96956.63;;;9.46;63.56
22580;BME280;11456;47.030;15.396;2023-01-08T11:07:42;96965.34;;;8.55;66.54
22580;BME280;11456;47.030;15.396;2023-01-08T11:10:23;96948.72;;;8.51;67.35
22580;BME280;11456;47.030;15.396;2023-01-08T11:12:57;96943.59;;;8.92;66.37
22580;BME280;11456;47.030;15.396;2023-01-08T11:15:46;96937.38;;;8.22;67.52
22580;BME280;11456;47.030;15.396;2023-01-08T11:18:18;96927.44;;;8.32;68.08
22580;BME280;11456;47.030;15.396;2023-01-08T11:20:46;96934.91;;;8.46;67.25
22580;BME280;11456;47.030;15.396;2023-01-08T11:23:23;96935.56;;;8.04;68.32
22580;BME280;11456;47.030;15.396;2023-01-08T11:26:07;96936.66;;;8.20;67.41
22580;BME280;11456;47.030;15.396;2023-01-08T11:31:12;96911.06;;;7.99;67.16
22580;BME280;11456;47.030;15.396;2023-01-08T11:33:39;96908.56;;;8.24;66.54
22580;BME280;11456;47.030;15.396;2023-01-08T11:36:09;96911.34;;;8.32;67.73
22580;BME280;11456;47.030;15.396;2023-01-08T11:38:40;96920.56;;;8.20;68.71
22580;BME280;11456;47.030;15.396;2023-01-08T11:44:10;96907.47;;;9.20;64.58
22580;BME280;11456;47.030;15.396;2023-01-08T11:49:29;96893.22;;;8.85;63.48
22580;BME280;11456;47.030;15.396;2023-01-08T12:06:08;96857.56;;;10.00;60.65
22580;BME280;11456;47.030;15.396;2023-01-08T12:11:38;96856.84;;;8.99;64.08
22580;BME280;11456;47.030;15.396;2023-01-08T12:22:49;96877.19;;;7.98;67.59
22580;BME280;11456;47.030;15.396;2023-01-08T12:28:06;96861.78;;;9.12;62.16
22580;BME280;11456;47.030;15.396;2023-01-08T12:33:14;96869.16;;;7.98;67.36
22580;BME280;11456;47.030;15.396;2023-01-08T12:35:47;96859.84;;;8.11;68.01
22580;BME280;11456;47.030;15.396;2023-01-08T12:38:17;96865.66;;;8.24;67.35
22580;BME280;11456;47.030;15.396;2023-01-08T12:40:50;96860.16;;;8.07;69.01
22580;BME280;11456;47.030;15.396;2023-01-08T12:43:18;96854.53;;;8.36;66.08
22580;BME280;11456;47.030;15.396;2023-01-08T12:45:47;96865.91;;;8.30;66.38
22580;BME280;11456;47.030;15.396;2023-01-08T12:48:17;96863.75;;;8.16;67.95
22580;BME280;11456;47.030;15.396;2023-01-08T12:50:50;96861.72;;;7.57;68.92
22580;BME280;11456;47.030;15.396;2023-01-08T13:01:03;96874.41;;;7.19;72.47
22580;BME280;11456;47.030;15.396;2023-01-08T13:03:32;96852.69;;;7.22;73.89
22580;BME280;11456;47.030;15.396;2023-01-08T13:06:32;96852.84;;;7.39;71.71
22580;BME280;11456;47.030;15.396;2023-01-08T13:08:55;96853.47;;;7.33;73.34
22580;BME280;11456;47.030;15.396;2023-01-08T13:11:30;96848.13;;;7.05;74.48
22580;BME280;11456;47.030;15.396;2023-01-08T13:16:27;96846.63;;;7.20;74.81
22580;BME280;11456;47.030;15.396;2023-01-08T13:19:01;96855.88;;;7.08;75.85
22580;BME280;11456;47.030;15.396;2023-01-08T13:21:32;96851.00;;;7.21;77.01
22580;BME280;11456;47.030;15.396;2023-01-08T13:24:02;96849.22;;;7.30;76.48
22580;BME280;11456;47.030;15.396;2023-01-08T13:26:30;96866.38;;;7.37;76.08
22580;BME280;11456;47.030;15.396;2023-01-08T13:29:05;96848.41;;;7.30;76.58
22580;BME280;11456;47.030;15.396;2023-01-08T13:31:37;96845.81;;;7.38;75.33
22580;BME280;11456;47.030;15.396;2023-01-08T13:34:17;96846.97;;;7.35;74.73
22580;BME280;11456;47.030;15.396;2023-01-08T13:36:53;96842.44;;;7.36;74.65
22580;BME280;11456;47.030;15.396;2023-01-08T13:39:21;96844.47;;;7.24;76.07
22580;BME280;11456;47.030;15.396;2023-01-08T13:41:58;96857.56;;;7.09;76.51
22580;BME280;11456;47.030;15.396;2023-01-08T13:44:27;96851.00;;;7.57;74.37
22580;BME280;11456;47.030;15.396;2023-01-08T13:46:57;96863.69;;;7.19;76.47
22580;BME280;11456;47.030;15.396;2023-01-08T13:49:26;96846.59;;;7.48;76.07
22580;BME280;11456;47.030;15.396;2023-01-08T13:51:54;96872.75;;;7.54;75.42
22580;BME280;11456;47.030;15.396;2023-01-08T13:54:23;96857.91;;;7.42;75.72
22580;BME280;11456;47.030;15.396;2023-01-08T13:56:51;96842.28;;;8.16;71.63
22580;BME280;11456;47.030;15.396;2023-01-08T13:59:30;96877.66;;;7.41;74.34
22580;BME280;11456;47.030;15.396;2023-01-08T14:01:59;96861.84;;;7.20;76.31
22580;BME280;11456;47.030;15.396;2023-01-08T14:04:27;96856.00;;;7.34;75.78